Time;durP1;ratioP1;P1;durP2;ratioP2;P2;SDS_P1;SDS_P2;PMS_P1;PMS_P2;Temp;Humidity;BMP_temperature;BMP_pressure;BME280_temperature;BME280_humidity;BME280_pressure;Samples;Min_cycle;Max_cycle;Signal;HPM_P1;HPM_P2
2021/12/23 00:02:11;;;;;;;;;;;;;;;-17.77;68.27;99300.44;4998393;28;19913;-78
2021/12/23 00:04:37;;;;;;;;;;;;;;;-17.57;68.49;99304.84;5015979;28;19957;-77
2021/12/23 00:07:02;;;;;;;;;;;;;;;-17.58;67.85;99305.56;5014341;28;19917;-78
2021/12/23 00:09:51;;;;;;;;;;;;;;;-17.54;67.90;99312.59;5014816;28;20421;-77
2021/12/23 00:12:13;;;;;;;;;;;;;;;-17.64;68.20;99317.34;5014656;28;19964;-78
2021/12/23 00:14:39;;;;;;;;;;;;;;;-17.67;68.04;99322.88;5014384;28;20395;-78
2021/12/23 00:25:27;;;;;;;;;;;;;;;-17.31;67.94;99328.09;5014418;28;19922;-78
2021/12/23 00:27:53;;;;;;;;;;;;;;;-17.39;67.57;99330.56;4998222;28;20433;-78
2021/12/23 00:30:18;;;;;;;;;;;;;;;-17.30;67.92;99336.41;5015306;28;20027;-78
2021/12/23 00:32:44;;;;;;;;;;;;;;;-17.18;67.54;99342.56;4996498;28;19913;-78
2021/12/23 00:35:10;;;;;;;;;;;;;;;-17.27;67.14;99336.69;5014013;28;19917;-78
2021/12/23 00:37:40;;;;;;;;;;;;;;;-17.41;67.49;99344.38;5014249;28;19963;-77
2021/12/23 00:40:06;;;;;;;;;;;;;;;-17.43;68.26;99351.69;5013057;28;19921;-77
2021/12/23 00:42:32;;;;;;;;;;;;;;;-17.47;68.09;99349.63;5013850;28;20407;-78
2021/12/23 00:44:58;;;;;;;;;;;;;;;-17.47;68.37;99344.66;5014025;28;20435;-78
2021/12/23 00:47:23;;;;;;;;;;;;;;;-17.36;68.17;99348.19;5013805;28;19913;-78
2021/12/23 00:49:49;;;;;;;;;;;;;;;-17.45;68.08;99355.63;5013916;28;19917;-78
2021/12/23 00:52:17;;;;;;;;;;;;;;;-17.39;68.28;99350.38;5013808;28;20400;-78
2021/12/23 00:54:43;;;;;;;;;;;;;;;-17.50;68.31;99355.16;5014805;28;19917;-79
2021/12/23 00:57:08;;;;;;;;;;;;;;;-17.48;68.49;99365.22;4997302;28;19913;-78
2021/12/23 00:59:37;;;;;;;;;;;;;;;-17.46;68.43;99368.72;5013587;28;19921;-78
2021/12/23 01:02:06;;;;;;;;;;;;;;;-17.26;68.39;99368.22;5013476;28;19939;-78
2021/12/23 01:04:32;;;;;;;;;;;;;;;-17.33;67.91;99359.28;5012918;28;20051;-77
2021/12/23 01:06:58;;;;;;;;;;;;;;;-17.17;67.96;99358.34;5013613;28;20345;-78
2021/12/23 01:09:23;;;;;;;;;;;;;;;-17.26;67.84;99360.78;5014599;28;19917;-77
2021/12/23 01:11:50;;;;;;;;;;;;;;;-17.36;67.68;99366.44;5013327;28;20031;-77
2021/12/23 01:17:11;;;;;;;;;;;;;;;-17.36;68.57;99363.06;5012822;28;19924;-78
2021/12/23 01:19:38;;;;;;;;;;;;;;;-17.33;69.06;99355.94;5009305;28;19921;-78
2021/12/23 01:22:04;;;;;;;;;;;;;;;-17.27;68.79;99363.97;5028547;28;19921;-77
2021/12/23 01:24:33;;;;;;;;;;;;;;;-17.25;68.88;99350.16;4996660;28;19913;-78
2021/12/23 01:26:58;;;;;;;;;;;;;;;-17.16;69.21;99348.56;5012906;28;19925;-77
2021/12/23 01:29:24;;;;;;;;;;;;;;;-17.20;68.86;99344.03;5012954;28;19914;-78
2021/12/23 01:31:50;;;;;;;;;;;;;;;-17.11;68.96;99352.38;5012848;28;19971;-78
2021/12/23 01:34:15;;;;;;;;;;;;;;;-17.10;68.92;99341.72;4996719;28;19949;-78
2021/12/23 01:36:41;;;;;;;;;;;;;;;-17.00;68.98;99334.44;5012892;28;20335;-78
2021/12/23 01:39:06;;;;;;;;;;;;;;;-17.06;69.04;99337.94;5012848;28;19928;-78
2021/12/23 01:41:32;;;;;;;;;;;;;;;-17.09;69.42;99333.53;4996529;28;19917;-77
2021/12/23 01:43:57;;;;;;;;;;;;;;;-17.29;69.69;99328.25;5012354;28;19918;-78
2021/12/23 01:46:23;;;;;;;;;;;;;;;-17.16;70.45;99337.78;5012730;28;19929;-78
2021/12/23 01:48:48;;;;;;;;;;;;;;;-16.97;69.99;99343.78;4996616;28;19917;-78
2021/12/23 01:51:14;;;;;;;;;;;;;;;-17.00;69.67;99344.34;5012620;28;20327;-78
2021/12/23 01:53:39;;;;;;;;;;;;;;;-17.07;69.56;99337.06;4996124;28;19913;-78
2021/12/23 01:56:05;;;;;;;;;;;;;;;-17.12;69.85;99332.38;5012457;28;19917;-78
2021/12/23 01:58:31;;;;;;;;;;;;;;;-17.14;69.99;99333.81;5012526;28;19913;-79
2021/12/23 02:00:56;;;;;;;;;;;;;;;-17.20;70.32;99325.06;5012460;28;20013;-78
2021/12/23 02:03:22;;;;;;;;;;;;;;;-17.08;70.15;99325.41;5013608;28;20395;-78
2021/12/23 02:05:47;;;;;;;;;;;;;;;-17.08;70.33;99327.88;5012370;28;20417;-77
2021/12/23 02:08:13;;;;;;;;;;;;;;;-16.87;70.79;99336.50;5012519;28;20331;-77
2021/12/23 02:10:40;;;;;;;;;;;;;;;-16.83;69.69;99337.69;5012428;28;19965;-78
2021/12/23 02:13:05;;;;;;;;;;;;;;;-16.82;69.14;99337.81;4995742;28;19914;-78
2021/12/23 02:15:31;;;;;;;;;;;;;;;-16.76;69.83;99347.47;4996010;28;19924;-78
2021/12/23 02:17:56;;;;;;;;;;;;;;;-16.83;69.87;99357.53;4995713;28;19913;-77
2021/12/23 02:20:23;;;;;;;;;;;;;;;-16.72;69.33;99351.97;5013532;28;19917;-77
2021/12/23 02:22:48;;;;;;;;;;;;;;;-16.73;68.94;99350.22;5012129;28;19956;-78
2021/12/23 02:25:14;;;;;;;;;;;;;;;-16.65;69.24;99353.44;4995803;28;19968;-77
2021/12/23 02:27:40;;;;;;;;;;;;;;;-16.77;69.66;99350.66;5011873;28;20060;-77
2021/12/23 02:30:07;;;;;;;;;;;;;;;-16.85;69.54;99349.06;5012031;28;19917;-77
2021/12/23 02:32:34;;;;;;;;;;;;;;;-16.75;70.39;99345.13;4995488;28;20332;-78
2021/12/23 02:34:59;;;;;;;;;;;;;;;-16.79;70.49;99353.00;5011894;28;20007;-78
2021/12/23 02:37:25;;;;;;;;;;;;;;;-16.70;69.73;99343.06;4995460;28;19964;-77
2021/12/23 02:39:50;;;;;;;;;;;;;;;-16.68;69.53;99341.59;5012853;28;20352;-77
2021/12/23 02:42:16;;;;;;;;;;;;;;;-16.63;69.95;99339.53;5011975;28;20008;-77
2021/12/23 02:44:41;;;;;;;;;;;;;;;-16.61;69.28;99343.94;5011655;28;19921;-77
2021/12/23 02:47:07;;;;;;;;;;;;;;;-16.51;69.80;99340.72;5011882;28;19918;-78
2021/12/23 02:49:33;;;;;;;;;;;;;;;-16.57;69.61;99341.03;5011821;28;19917;-78
2021/12/23 02:51:58;;;;;;;;;;;;;;;-16.49;70.42;99346.69;5011798;28;19932;-78
2021/12/23 02:54:23;;;;;;;;;;;;;;;-16.43;70.55;99349.78;4995398;28;20019;-78
2021/12/23 02:56:49;;;;;;;;;;;;;;;-16.36;69.54;99348.75;4997451;28;19920;-78
2021/12/23 02:59:14;;;;;;;;;;;;;;;-16.29;70.22;99351.09;5015684;28;19921;-78
2021/12/23 03:01:40;;;;;;;;;;;;;;;-16.44;69.93;99355.50;5016930;28;20276;-77
2021/12/23 03:04:05;;;;;;;;;;;;;;;-16.46;70.75;99347.88;5016767;28;19917;-77
2021/12/23 03:06:31;;;;;;;;;;;;;;;-16.47;70.10;99353.56;5016814;28;19944;-78
2021/12/23 03:08:59;;;;;;;;;;;;;;;-16.53;70.95;99353.00;5015759;28;19917;-78
2021/12/23 03:11:25;;;;;;;;;;;;;;;-16.51;71.37;99354.00;5016917;28;19920;-78
2021/12/23 03:13:50;;;;;;;;;;;;;;;-16.53;71.21;99355.47;5015594;28;19917;-78
2021/12/23 03:16:20;;;;;;;;;;;;;;;-16.49;71.26;99346.69;5015429;28;20383;-77
2021/12/23 03:18:45;;;;;;;;;;;;;;;-16.48;71.30;99349.34;4999224;28;19917;-77
2021/12/23 03:21:11;;;;;;;;;;;;;;;-16.42;71.43;99347.44;4999409;28;19928;-78
2021/12/23 03:23:36;;;;;;;;;;;;;;;-16.39;71.34;99354.31;5015526;28;20395;-78
2021/12/23 03:26:01;;;;;;;;;;;;;;;-16.40;70.90;99350.06;5015188;28;19917;-78
2021/12/23 03:28:27;;;;;;;;;;;;;;;-16.38;71.03;99346.13;5015394;28;20358;-77
2021/12/23 03:30:52;;;;;;;;;;;;;;;-16.33;72.00;99359.84;4998812;28;19913;-77
2021/12/23 03:33:18;;;;;;;;;;;;;;;-16.23;71.38;99357.50;5016565;28;19927;-78
2021/12/23 03:35:44;;;;;;;;;;;;;;;-16.20;70.75;99354.44;4998874;28;19924;-77
2021/12/23 03:38:09;;;;;;;;;;;;;;;-16.23;70.81;99351.66;4998709;28;19931;-79
2021/12/23 03:40:35;;;;;;;;;;;;;;;-16.24;71.40;99350.78;5015254;28;20303;-78
2021/12/23 03:43:00;;;;;;;;;;;;;;;-16.10;70.77;99359.53;5014980;28;20366;-78
2021/12/23 03:45:26;;;;;;;;;;;;;;;-16.24;71.08;99352.41;5016387;28;20369;-78
2021/12/23 03:47:51;;;;;;;;;;;;;;;-16.24;71.79;99353.28;4998541;28;20332;-77
2021/12/23 03:50:18;;;;;;;;;;;;;;;-16.02;71.42;99347.84;5016231;28;19920;-77
2021/12/23 03:52:44;;;;;;;;;;;;;;;-16.10;71.36;99362.03;5014910;28;19917;-77
2021/12/23 03:55:09;;;;;;;;;;;;;;;-16.08;72.05;99353.09;5015111;28;19913;-77
2021/12/23 03:57:35;;;;;;;;;;;;;;;-16.20;71.68;99360.28;4998367;28;19917;-79
2021/12/23 04:00:00;;;;;;;;;;;;;;;-16.13;71.36;99359.25;5014797;28;19913;-78
2021/12/23 04:02:26;;;;;;;;;;;;;;;-16.12;71.44;99361.03;5014769;28;19917;-78
2021/12/23 04:04:51;;;;;;;;;;;;;;;-15.97;72.42;99362.44;4998327;28;19913;-78
2021/12/23 04:07:17;;;;;;;;;;;;;;;-15.85;70.83;99349.41;5014300;28;19921;-78
2021/12/23 04:09:42;;;;;;;;;;;;;;;-15.92;72.31;99355.44;5014660;28;19913;-78
2021/12/23 04:12:08;;;;;;;;;;;;;;;-15.93;72.32;99353.69;5030759;28;19921;-78
2021/12/23 04:14:33;;;;;;;;;;;;;;;-15.92;72.29;99355.44;5015684;28;19987;-78
2021/12/23 04:16:59;;;;;;;;;;;;;;;-15.97;72.13;99347.53;5014514;28;20302;-78
2021/12/23 04:19:28;;;;;;;;;;;;;;;-15.94;72.39;99352.81;5015603;28;19964;-77
2021/12/23 04:21:54;;;;;;;;;;;;;;;-15.87;71.99;99351.75;5014542;28;19968;-78
2021/12/23 04:24:19;;;;;;;;;;;;;;;-15.77;72.66;99360.94;4998162;28;19967;-76
2021/12/23 04:26:45;;;;;;;;;;;;;;;-15.78;71.21;99357.59;5014363;28;19928;-78
2021/12/23 04:29:10;;;;;;;;;;;;;;;-15.76;72.04;99362.69;5014534;28;19925;-78
2021/12/23 04:31:36;;;;;;;;;;;;;;;-15.70;71.73;99353.31;5014240;28;19925;-77
2021/12/23 04:34:01;;;;;;;;;;;;;;;-15.71;72.41;99346.56;5014295;28;19913;-77
2021/12/23 04:36:30;;;;;;;;;;;;;;;-15.76;71.71;99353.59;5014136;28;19924;-77
2021/12/23 04:38:55;;;;;;;;;;;;;;;-15.62;72.63;99362.34;5013790;28;20015;-77
2021/12/23 04:41:21;;;;;;;;;;;;;;;-15.52;71.55;99362.44;5014124;28;20015;-78
2021/12/23 04:43:46;;;;;;;;;;;;;;;-15.62;72.49;99359.84;5013974;28;19944;-78
2021/12/23 04:46:12;;;;;;;;;;;;;;;-15.49;72.17;99356.88;5013624;28;19961;-77
2021/12/23 04:48:37;;;;;;;;;;;;;;;-15.49;71.64;99356.88;4997658;28;19937;-78
2021/12/23 04:51:03;;;;;;;;;;;;;;;-15.43;73.39;99364.91;5013873;28;19917;-78
2021/12/23 04:53:29;;;;;;;;;;;;;;;-15.28;73.19;99360.44;4997794;28;19921;-78
2021/12/23 04:55:54;;;;;;;;;;;;;;;-15.29;72.46;99366.16;5014905;28;19921;-77
2021/12/23 04:58:20;;;;;;;;;;;;;;;-15.35;72.96;99365.59;5014074;28;20039;-79
2021/12/23 05:00:48;;;;;;;;;;;;;;;-15.44;71.98;99364.03;5013659;28;19964;-77
2021/12/23 05:03:15;;;;;;;;;;;;;;;-15.30;72.21;99381.81;5013694;28;19913;-78
2021/12/23 05:05:40;;;;;;;;;;;;;;;-15.33;73.42;99369.97;5013382;28;19983;-78
2021/12/23 05:08:06;;;;;;;;;;;;;;;-15.24;73.50;99373.31;4997106;28;19917;-77
2021/12/23 05:10:32;;;;;;;;;;;;;;;-15.24;73.64;99374.91;5013650;28;19917;-76
2021/12/23 05:12:58;;;;;;;;;;;;;;;-15.17;73.07;99379.69;5013400;28;19924;-78
2021/12/23 05:15:23;;;;;;;;;;;;;;;-15.19;73.27;99382.06;4997059;28;19982;-78
2021/12/23 05:17:49;;;;;;;;;;;;;;;-15.12;73.12;99385.97;5013346;28;19959;-77
2021/12/23 05:20:15;;;;;;;;;;;;;;;-15.05;73.91;99370.00;5014296;28;19917;-77
2021/12/23 05:22:40;;;;;;;;;;;;;;;-15.04;73.06;99375.09;5013367;28;20006;-77
2021/12/23 05:25:06;;;;;;;;;;;;;;;-15.02;74.34;99376.13;5013445;28;19984;-76
2021/12/23 05:27:32;;;;;;;;;;;;;;;-14.99;74.63;99373.91;4997218;28;19967;-78
2021/12/23 05:29:57;;;;;;;;;;;;;;;-14.90;74.68;99377.22;5013301;28;20447;-78
2021/12/23 05:32:23;;;;;;;;;;;;;;;-14.87;74.53;99375.00;4997121;28;19913;-78
2021/12/23 05:34:49;;;;;;;;;;;;;;;-14.85;73.82;99364.31;5013370;28;19923;-78
2021/12/23 05:37:14;;;;;;;;;;;;;;;-14.83;74.74;99366.22;4996905;28;20281;-77
2021/12/23 05:39:40;;;;;;;;;;;;;;;-14.75;75.15;99362.81;5014477;28;19921;-77
2021/12/23 05:42:05;;;;;;;;;;;;;;;-14.64;74.74;99372.09;5014467;28;19917;-79
2021/12/23 05:44:31;;;;;;;;;;;;;;;-14.63;73.80;99363.00;5013594;28;19921;-78
2021/12/23 05:46:56;;;;;;;;;;;;;;;-14.60;74.13;99362.41;5014337;28;19917;-79
2021/12/23 05:49:22;;;;;;;;;;;;;;;-14.56;74.72;99366.94;5013544;28;20372;-78
2021/12/23 05:51:47;;;;;;;;;;;;;;;-14.57;74.66;99363.53;4996798;28;20339;-78
2021/12/23 05:54:13;;;;;;;;;;;;;;;-14.55;75.37;99372.03;5013089;28;20346;-78
2021/12/23 05:56:38;;;;;;;;;;;;;;;-14.50;74.18;99369.94;4996553;28;20016;-78
2021/12/23 05:59:04;;;;;;;;;;;;;;;-14.43;75.21;99367.22;5013015;28;19952;-80
2021/12/23 06:01:30;;;;;;;;;;;;;;;-14.39;75.22;99367.59;5012829;28;19913;-78
2021/12/23 06:03:56;;;;;;;;;;;;;;;-14.33;74.24;99363.94;5013962;28;19918;-79
2021/12/23 06:06:21;;;;;;;;;;;;;;;-14.25;74.67;99367.94;4996475;28;19929;-78
2021/12/23 06:08:47;;;;;;;;;;;;;;;-14.28;73.74;99375.19;5012794;28;19924;-78
2021/12/23 06:11:12;;;;;;;;;;;;;;;-14.22;74.38;99370.72;4996416;28;20321;-79
2021/12/23 06:13:38;;;;;;;;;;;;;;;-14.17;74.23;99376.97;5014019;28;19975;-79
2021/12/23 06:16:03;;;;;;;;;;;;;;;-14.23;74.08;99371.47;5013749;28;19967;-80
2021/12/23 06:18:29;;;;;;;;;;;;;;;-14.29;74.24;99370.91;4996245;28;19917;-79
2021/12/23 06:20:54;;;;;;;;;;;;;;;-14.24;74.89;99369.72;4996745;28;19936;-78
2021/12/23 06:23:20;;;;;;;;;;;;;;;-14.24;74.62;99368.09;5012502;28;19921;-77
2021/12/23 06:25:45;;;;;;;;;;;;;;;-14.15;74.26;99370.53;4996048;28;19917;-77
2021/12/23 06:28:11;;;;;;;;;;;;;;;-14.11;73.74;99370.03;5012314;28;19968;-77
2021/12/23 06:30:36;;;;;;;;;;;;;;;-14.13;74.27;99361.56;4996181;28;19914;-77
2021/12/23 06:33:02;;;;;;;;;;;;;;;-14.13;73.90;99379.00;5012390;28;20384;-77
2021/12/23 06:35:28;;;;;;;;;;;;;;;-14.10;73.92;99371.78;4996231;28;20372;-77
2021/12/23 06:37:54;;;;;;;;;;;;;;;-14.06;74.08;99373.81;5012827;28;20012;-78
2021/12/23 06:40:19;;;;;;;;;;;;;;;-13.99;74.02;99373.59;4995674;28;20418;-78
2021/12/23 06:42:45;;;;;;;;;;;;;;;-13.97;73.64;99367.13;4995790;28;19972;-79
2021/12/23 06:45:11;;;;;;;;;;;;;;;-13.83;74.08;99370.81;5012884;28;19963;-78
2021/12/23 06:47:36;;;;;;;;;;;;;;;-13.99;73.98;99373.59;4995980;28;19939;-78
2021/12/23 06:50:02;;;;;;;;;;;;;;;-13.89;73.75;99366.16;4995803;28;20448;-78
2021/12/23 06:52:28;;;;;;;;;;;;;;;-14.00;73.04;99369.34;5013611;28;19928;-78
2021/12/23 06:54:56;;;;;;;;;;;;;;;-13.98;73.33;99377.81;5012234;28;20303;-78
2021/12/23 06:57:21;;;;;;;;;;;;;;;-13.97;73.59;99382.09;4995761;28;20009;-77
2021/12/23 06:59:47;;;;;;;;;;;;;;;-13.92;73.94;99370.91;4995781;28;19962;-82
2021/12/23 07:02:14;;;;;;;;;;;;;;;-13.84;73.77;99386.50;5013638;28;19924;-79
2021/12/23 07:04:42;;;;;;;;;;;;;;;-13.80;73.33;99387.63;4995822;28;19913;-78
2021/12/23 07:07:12;;;;;;;;;;;;;;;-13.73;72.88;99384.94;4995803;28;19928;-79
2021/12/23 07:09:38;;;;;;;;;;;;;;;-13.70;72.79;99382.69;4995923;28;20304;-79
2021/12/23 07:12:04;;;;;;;;;;;;;;;-13.71;72.68;99384.31;4995877;28;20388;-79
2021/12/23 07:14:30;;;;;;;;;;;;;;;-13.60;72.57;99382.75;5012170;28;20347;-77
2021/12/23 07:16:55;;;;;;;;;;;;;;;-13.59;72.54;99382.00;5013620;28;19917;-81
2021/12/23 07:19:21;;;;;;;;;;;;;;;-13.53;72.85;99382.50;4995867;28;19917;-79
2021/12/23 07:21:46;;;;;;;;;;;;;;;-13.39;72.44;99387.03;5014070;28;20314;-79
2021/12/23 07:24:12;;;;;;;;;;;;;;;-13.32;72.19;99390.94;5012116;28;19944;-78
2021/12/23 07:26:37;;;;;;;;;;;;;;;-13.31;71.69;99394.31;5011991;28;19928;-77
2021/12/23 07:29:03;;;;;;;;;;;;;;;-13.35;71.93;99391.56;4995694;28;19917;-78
2021/12/23 07:31:28;;;;;;;;;;;;;;;-13.43;71.86;99386.66;4995714;28;19920;-79
2021/12/23 07:33:54;;;;;;;;;;;;;;;-13.38;72.33;99391.28;5012640;28;19964;-81
2021/12/23 07:36:22;;;;;;;;;;;;;;;-13.41;72.21;99387.69;4995837;28;19913;-78
2021/12/23 07:38:48;;;;;;;;;;;;;;;-13.44;72.84;99400.75;4995293;28;19921;-78
2021/12/23 07:41:13;;;;;;;;;;;;;;;-13.38;72.44;99398.75;4995685;28;20359;-78
2021/12/23 07:46:04;;;;;;;;;;;;;;;-13.37;72.04;99399.66;5015648;28;19967;-78
2021/12/23 07:48:33;;;;;;;;;;;;;;;-13.44;71.97;99398.25;4999688;28;19917;-78
2021/12/23 07:50:58;;;;;;;;;;;;;;;-13.27;71.84;99398.81;5017078;28;19917;-78
2021/12/23 07:53:24;;;;;;;;;;;;;;;-13.21;72.23;99400.16;5015920;28;19917;-77
2021/12/23 07:55:49;;;;;;;;;;;;;;;-13.28;71.99;99399.53;4999240;28;20020;-78
2021/12/23 07:58:15;;;;;;;;;;;;;;;-13.28;72.10;99394.56;4998998;28;19941;-78
2021/12/23 08:00:41;;;;;;;;;;;;;;;-13.21;72.40;99390.19;5015548;28;20368;-78
2021/12/23 08:03:06;;;;;;;;;;;;;;;-13.16;72.39;99395.56;5015277;28;19917;-77
2021/12/23 08:05:33;;;;;;;;;;;;;;;-13.02;71.93;99382.59;4999235;28;19921;-77
2021/12/23 08:07:59;;;;;;;;;;;;;;;-13.06;71.76;99385.59;4999122;28;19971;-79
2021/12/23 08:10:25;;;;;;;;;;;;;;;-13.06;71.75;99378.09;5015591;28;19913;-82
2021/12/23 08:12:50;;;;;;;;;;;;;;;-13.03;71.45;99375.00;5015033;28;19917;-81
2021/12/23 08:15:16;;;;;;;;;;;;;;;-12.95;71.21;99379.88;5015222;28;19917;-77
2021/12/23 08:17:41;;;;;;;;;;;;;;;-12.83;71.11;99378.41;5016426;28;19955;-78
2021/12/23 08:20:07;;;;;;;;;;;;;;;-12.85;71.37;99379.88;5014929;28;19963;-77
2021/12/23 08:22:32;;;;;;;;;;;;;;;-12.91;71.12;99366.03;4998520;28;19961;-78
2021/12/23 08:24:58;;;;;;;;;;;;;;;-12.85;72.15;99374.00;5014912;28;19917;-78
2021/12/23 08:27:27;;;;;;;;;;;;;;;-12.77;71.48;99377.16;5014378;28;19968;-77
2021/12/23 08:29:52;;;;;;;;;;;;;;;-12.84;71.84;99375.75;5016469;28;20358;-80
2021/12/23 08:32:19;;;;;;;;;;;;;;;-12.72;71.35;99365.91;5015915;28;19953;-78
2021/12/23 08:34:44;;;;;;;;;;;;;;;-12.58;71.05;99365.41;5015911;28;19913;-83
2021/12/23 08:37:11;;;;;;;;;;;;;;;-12.54;71.16;99369.91;4998683;28;19940;-79
2021/12/23 08:39:37;;;;;;;;;;;;;;;-12.40;70.83;99361.03;4998281;28;20024;-79
2021/12/23 08:42:03;;;;;;;;;;;;;;;-12.45;70.86;99364.78;5015131;28;19988;-78
2021/12/23 08:44:28;;;;;;;;;;;;;;;-12.46;70.23;99366.41;5015935;28;20427;-78
2021/12/23 08:46:54;;;;;;;;;;;;;;;-12.44;71.26;99362.41;4998291;28;20020;-78
2021/12/23 08:49:19;;;;;;;;;;;;;;;-12.45;71.38;99363.16;5015119;28;19960;-77
2021/12/23 08:51:45;;;;;;;;;;;;;;;-12.42;71.36;99372.50;4998441;28;19917;-78
2021/12/23 08:54:10;;;;;;;;;;;;;;;-12.34;70.14;99359.00;4997357;28;19914;-77
2021/12/23 08:56:36;;;;;;;;;;;;;;;-12.16;71.36;99354.59;5014154;28;19917;-77
2021/12/23 08:59:01;;;;;;;;;;;;;;;-12.13;71.36;99352.34;4997766;28;19913;-79
2021/12/23 09:01:27;;;;;;;;;;;;;;;-12.08;70.37;99346.09;5014482;28;20285;-79
2021/12/23 09:03:52;;;;;;;;;;;;;;;-12.02;70.33;99346.56;5014094;28;19914;-80
2021/12/23 09:06:18;;;;;;;;;;;;;;;-12.02;69.99;99353.19;5015718;28;19929;-83
2021/12/23 09:08:43;;;;;;;;;;;;;;;-12.03;70.63;99353.94;5015397;28;19913;-79
2021/12/23 09:11:09;;;;;;;;;;;;;;;-12.02;71.19;99343.19;5015641;28;20403;-78
2021/12/23 09:13:34;;;;;;;;;;;;;;;-11.95;71.03;99350.44;4998174;28;20384;-77
2021/12/23 09:16:00;;;;;;;;;;;;;;;-11.81;70.48;99348.22;5014554;28;19923;-79
2021/12/23 09:18:25;;;;;;;;;;;;;;;-11.81;70.43;99340.72;5015603;28;19913;-82
2021/12/23 09:20:51;;;;;;;;;;;;;;;-11.70;71.05;99345.66;5014112;28;19917;-80
2021/12/23 09:23:18;;;;;;;;;;;;;;;-11.65;70.89;99340.25;4998103;28;19964;-79
2021/12/23 09:25:45;;;;;;;;;;;;;;;-11.67;70.78;99346.78;4998330;28;20411;-78
2021/12/23 09:33:21;;;;;;;;;;;;;;;-11.81;71.08;99340.72;5013956;28;19955;-82
2021/12/23 09:35:47;;;;;;;;;;;;;;;-11.52;69.64;99332.94;4997937;28;19914;-82
2021/12/23 09:38:13;;;;;;;;;;;;;;;-11.45;70.62;99336.81;4997433;28;19917;-81
2021/12/23 09:40:38;;;;;;;;;;;;;;;-11.51;69.32;99343.81;5013889;28;20016;-78
2021/12/23 09:43:08;;;;;;;;;;;;;;;-11.36;70.02;99335.00;4997434;28;19952;-78
2021/12/23 09:45:34;;;;;;;;;;;;;;;-11.11;70.39;99331.81;4997262;28;19924;-79
2021/12/23 09:48:02;;;;;;;;;;;;;;;-11.31;68.29;99328.69;4998147;28;19917;-83
2021/12/23 09:50:28;;;;;;;;;;;;;;;-11.28;70.02;99333.06;4997591;28;19918;-84
2021/12/23 09:52:54;;;;;;;;;;;;;;;-11.34;69.22;99330.97;5013459;28;19921;-82
2021/12/23 09:55:23;;;;;;;;;;;;;;;-11.17;69.28;99331.38;5013809;28;19913;-79
2021/12/23 09:57:49;;;;;;;;;;;;;;;-11.25;68.54;99332.44;4997369;28;20407;-83
2021/12/23 10:00:18;;;;;;;;;;;;;;;-11.02;68.85;99323.38;5014212;28;19959;-79
2021/12/23 10:02:44;;;;;;;;;;;;;;;-11.22;67.90;99332.63;5014200;28;20284;-81
2021/12/23 10:05:20;;;;;;;;;;;;;;;-11.11;69.10;99311.78;4997003;28;19920;-80
2021/12/23 10:07:47;;;;;;;;;;;;;;;-10.88;68.45;99311.88;4981165;28;19917;-83
2021/12/23 10:10:21;;;;;;;;;;;;;;;-10.55;68.11;99307.56;5014636;28;20004;-80
2021/12/23 10:27:40;;;;;;;;;;;;;;;-9.10;60.73;99314.34;5012458;28;19921;-77
2021/12/23 10:38:21;;;;;;;;;;;;;;;-10.11;64.03;99308.22;4953566;28;19918;-79
2021/12/23 10:40:48;;;;;;;;;;;;;;;-10.28;64.26;99298.66;5012449;28;19964;-78
2021/12/23 10:43:26;;;;;;;;;;;;;;;-10.57;66.02;99299.09;5012378;28;19920;-78
2021/12/23 10:46:00;;;;;;;;;;;;;;;-10.68;66.32;99302.44;5028697;28;19921;-79
2021/12/23 10:48:28;;;;;;;;;;;;;;;-10.77;66.21;99305.13;5011157;28;19967;-79
2021/12/23 10:51:08;;;;;;;;;;;;;;;-10.78;67.16;99309.28;4996079;28;19921;-81
2021/12/23 10:53:45;;;;;;;;;;;;;;;-10.79;67.92;99295.00;4996366;28;19925;-79
2021/12/23 10:59:20;;;;;;;;;;;;;;;-10.70;67.16;99291.44;5013808;28;19917;-78
2021/12/23 11:02:07;;;;;;;;;;;;;;;-10.74;67.77;99294.47;4995671;28;19923;-80
2021/12/23 11:04:38;;;;;;;;;;;;;;;-10.79;67.87;99284.09;4995966;28;20433;-79
2021/12/23 11:07:21;;;;;;;;;;;;;;;-10.70;67.95;99296.44;5012865;28;20033;-77
2021/12/23 11:10:19;;;;;;;;;;;;;;;-10.66;67.92;99276.72;5012516;28;19956;-82
2021/12/23 11:35:33;;;;;;;;;;;;;;;-10.50;66.34;99276.19;5016492;28;19924;-79
2021/12/23 11:37:44;;;;;;;;;;;;;;;-10.46;65.25;99274.78;5013381;28;19928;-79
2021/12/23 11:40:25;;;;;;;;;;;;;;;-10.43;65.25;99280.88;5016158;28;19928;-79
2021/12/23 11:45:31;;;;;;;;;;;;;;;-10.37;64.72;99266.28;5030110;28;19917;-78
2021/12/23 11:47:57;;;;;;;;;;;;;;;-10.32;65.52;99267.47;5015677;28;20434;-81
2021/12/23 11:50:41;;;;;;;;;;;;;;;-10.43;65.88;99267.47;5016015;28;19917;-79
2021/12/23 11:53:06;;;;;;;;;;;;;;;-10.36;64.80;99278.03;4996921;28;20332;-81
2021/12/23 11:55:32;;;;;;;;;;;;;;;-10.54;64.76;99267.56;4999410;28;19995;-79
2021/12/23 11:57:58;;;;;;;;;;;;;;;-10.56;66.03;99285.78;5016102;28;19976;-78
2021/12/23 12:00:41;;;;;;;;;;;;;;;-10.64;65.61;99272.69;5015436;28;19961;-78
2021/12/23 12:03:07;;;;;;;;;;;;;;;-10.65;66.37;99273.44;5015276;28;19917;-78
2021/12/23 12:05:33;;;;;;;;;;;;;;;-10.72;64.91;99267.88;4998955;28;19917;-77
2021/12/23 12:08:12;;;;;;;;;;;;;;;-10.61;65.53;99262.03;4999367;28;20016;-80
2021/12/23 12:10:38;;;;;;;;;;;;;;;-10.73;66.59;99254.47;4998984;28;20371;-80
2021/12/23 12:13:04;;;;;;;;;;;;;;;-10.71;65.45;99254.59;5015223;28;19940;-80
2021/12/23 12:15:34;;;;;;;;;;;;;;;-10.62;66.74;99245.25;5014997;28;20361;-77
2021/12/23 12:18:00;;;;;;;;;;;;;;;-10.66;66.26;99243.28;5014946;28;19968;-80
2021/12/23 12:20:38;;;;;;;;;;;;;;;-10.65;66.57;99240.00;5015266;28;20379;-82
2021/12/23 12:23:08;;;;;;;;;;;;;;;-10.60;65.42;99238.69;4998723;28;19921;-77
2021/12/23 12:25:44;;;;;;;;;;;;;;;-10.62;64.95;99243.59;5015181;28;19913;-82
2021/12/23 12:28:11;;;;;;;;;;;;;;;-10.67;65.39;99236.50;5016064;28;19918;-79
2021/12/23 12:30:37;;;;;;;;;;;;;;;-10.69;65.13;99240.53;4998757;28;19913;-79
2021/12/23 12:33:03;;;;;;;;;;;;;;;-10.60;66.88;99246.22;5016332;28;19925;-82
2021/12/23 12:35:29;;;;;;;;;;;;;;;-10.41;65.40;99245.88;4999130;28;19913;-79
2021/12/23 12:37:55;;;;;;;;;;;;;;;-10.16;65.47;99243.47;5015943;28;20292;-78
2021/12/23 12:40:20;;;;;;;;;;;;;;;-9.87;64.49;99247.97;5014546;28;19921;-79
2021/12/23 12:42:48;;;;;;;;;;;;;;;-9.56;64.07;99241.78;5014520;28;19924;-77
2021/12/23 12:45:23;;;;;;;;;;;;;;;-9.44;63.28;99235.81;5015418;28;20336;-78
2021/12/23 12:47:54;;;;;;;;;;;;;;;-9.27;62.36;99235.31;5014395;28;19921;-81
2021/12/23 12:50:21;;;;;;;;;;;;;;;-9.17;62.01;99230.13;5015867;28;20020;-79
2021/12/23 12:52:47;;;;;;;;;;;;;;;-9.16;62.00;99244.47;5015740;28;19917;-81
2021/12/23 12:55:18;;;;;;;;;;;;;;;-9.34;61.90;99233.19;5014821;28;19917;-80
2021/12/23 12:57:48;;;;;;;;;;;;;;;-9.63;62.41;99242.13;5014741;28;19979;-83
2021/12/23 13:00:35;;;;;;;;;;;;;;;-10.01;63.02;99244.50;4998308;28;19921;-84
2021/12/23 13:03:04;;;;;;;;;;;;;;;-10.35;65.00;99241.34;4998508;28;19925;-81
2021/12/23 13:05:36;;;;;;;;;;;;;;;-10.52;65.07;99235.09;5015553;28;19913;-83
2021/12/23 13:08:20;;;;;;;;;;;;;;;-10.69;66.84;99238.03;5014453;28;19925;-81
2021/12/23 13:11:21;;;;;;;;;;;;;;;-10.90;66.15;99240.75;5014296;28;19918;-80
2021/12/23 13:14:00;;;;;;;;;;;;;;;-10.96;67.05;99240.28;4999264;28;19971;-81
2021/12/23 13:16:51;;;;;;;;;;;;;;;-11.10;67.17;99235.91;5001074;28;19983;-82
2021/12/23 13:19:17;;;;;;;;;;;;;;;-11.19;68.75;99238.59;5014361;28;20399;-82
2021/12/23 13:21:43;;;;;;;;;;;;;;;-11.22;68.13;99242.50;5014440;28;19995;-81
2021/12/23 13:24:12;;;;;;;;;;;;;;;-11.36;69.48;99249.88;5016202;28;19932;-83
2021/12/23 13:26:39;;;;;;;;;;;;;;;-11.50;70.42;99252.09;5014083;28;20369;-79
2021/12/23 13:29:06;;;;;;;;;;;;;;;-11.57;69.41;99248.25;4997802;28;19952;-83
2021/12/23 13:31:33;;;;;;;;;;;;;;;-11.65;69.71;99255.19;4997635;28;19917;-78
2021/12/23 13:34:00;;;;;;;;;;;;;;;-11.69;70.08;99250.69;5013877;28;19960;-82
2021/12/23 13:36:29;;;;;;;;;;;;;;;-11.71;70.82;99258.84;4997854;28;19917;-78
2021/12/23 13:39:01;;;;;;;;;;;;;;;-11.76;72.09;99253.50;5013906;28;19922;-84
2021/12/23 13:41:28;;;;;;;;;;;;;;;-11.85;71.28;99246.22;5012992;28;19963;-83
2021/12/23 13:44:01;;;;;;;;;;;;;;;-11.88;71.67;99255.09;5014051;28;19975;-80
2021/12/23 13:46:27;;;;;;;;;;;;;;;-11.92;72.24;99243.09;5013753;28;20311;-81
2021/12/23 13:48:58;;;;;;;;;;;;;;;-11.96;72.24;99256.13;5013853;28;19919;-77